createdAt,value
2023-06-28T00:01:38.510Z,20.67
2023-06-28T00:04:06.776Z,20.63
2023-06-28T00:06:34.322Z,20.71
2023-06-28T00:09:01.859Z,20.72
2023-06-28T00:11:29.705Z,20.67
2023-06-28T00:13:57.227Z,20.64
2023-06-28T00:16:24.662Z,20.73
2023-06-28T00:18:52.359Z,20.67
2023-06-28T00:21:20.335Z,20.55
2023-06-28T00:23:47.826Z,20.46
2023-06-28T00:26:15.537Z,20.71
2023-06-28T00:28:43.083Z,20.63
2023-06-28T00:31:10.584Z,20.53
2023-06-28T00:33:39.049Z,20.44
2023-06-28T00:36:06.521Z,20.35
2023-06-28T00:38:35.845Z,20.28
2023-06-28T00:41:04.725Z,20.30
2023-06-28T00:43:33.847Z,20.25
2023-06-28T00:46:01.313Z,20.25
2023-06-28T00:48:29.160Z,20.40
2023-06-28T00:50:56.713Z,19.91
2023-06-28T00:53:24.203Z,19.98
2023-06-28T00:55:51.973Z,20.08
2023-06-28T00:58:19.750Z,20.05
2023-06-28T01:00:47.825Z,20.12
2023-06-28T01:03:19.637Z,19.94
2023-06-28T01:05:49.961Z,20.00
2023-06-28T01:08:18.211Z,20.06
2023-06-28T01:10:46.132Z,19.96
2023-06-28T01:13:13.600Z,19.95
2023-06-28T01:15:41.384Z,19.93
2023-06-28T01:18:12.531Z,19.80
2023-06-28T01:20:40.498Z,19.96
2023-06-28T01:23:08.395Z,19.92
2023-06-28T01:25:37.466Z,19.79
2023-06-28T01:28:05.139Z,19.91
2023-06-28T01:30:37.319Z,19.92
2023-06-28T01:33:05.666Z,20.02
2023-06-28T01:35:33.545Z,19.78
2023-06-28T01:38:01.524Z,19.96
2023-06-28T01:40:29.073Z,19.97
2023-06-28T01:42:56.775Z,19.53
2023-06-28T01:45:24.241Z,19.73
2023-06-28T01:47:51.819Z,19.41
2023-06-28T01:50:20.209Z,19.00
2023-06-28T01:52:47.699Z,19.47
2023-06-28T01:55:15.259Z,19.49
2023-06-28T01:57:43.147Z,19.36
2023-06-28T02:00:11.953Z,19.43
2023-06-28T02:02:44.489Z,19.12
2023-06-28T02:05:12.295Z,19.25
2023-06-28T02:07:41.622Z,19.28
2023-06-28T02:10:11.126Z,19.25
2023-06-28T02:12:39.034Z,18.85
2023-06-28T02:15:07.304Z,19.11
2023-06-28T02:17:38.122Z,19.25
2023-06-28T02:20:08.301Z,19.11
2023-06-28T02:22:36.017Z,19.14
2023-06-28T02:25:03.878Z,19.02
2023-06-28T02:27:32.005Z,19.17
2023-06-28T02:29:59.872Z,19.06
2023-06-28T02:32:31.691Z,19.17
2023-06-28T02:34:59.350Z,18.86
2023-06-28T02:37:27.084Z,18.84
2023-06-28T02:39:54.519Z,19.08
2023-06-28T02:42:22.128Z,19.22
2023-06-28T02:44:50.462Z,19.07
2023-06-28T02:47:18.106Z,19.20
2023-06-28T02:49:45.547Z,19.36
2023-06-28T02:52:13.263Z,19.20
2023-06-28T02:54:40.827Z,19.11
2023-06-28T02:57:10.423Z,19.21
2023-06-28T02:59:39.024Z,19.13
2023-06-28T03:02:06.913Z,19.18
2023-06-28T03:04:40.702Z,19.05
2023-06-28T03:07:16.138Z,19.29
2023-06-28T03:09:43.742Z,19.32
2023-06-28T03:12:12.097Z,19.31
2023-06-28T03:14:39.548Z,19.34
2023-06-28T03:17:07.185Z,19.30
2023-06-28T03:19:35.763Z,18.94
2023-06-28T03:22:04.403Z,18.81
2023-06-28T03:24:31.944Z,18.73
2023-06-28T03:27:00.037Z,18.64
2023-06-28T03:29:27.833Z,18.34
2023-06-28T03:31:56.427Z,18.66
2023-06-28T03:34:24.437Z,18.87
2023-06-28T03:37:02.622Z,19.07
2023-06-28T03:39:32.621Z,19.19
2023-06-28T03:42:00.095Z,18.99
2023-06-28T03:44:27.529Z,19.20
2023-06-28T03:46:55.232Z,19.10
2023-06-28T03:49:22.728Z,19.15
2023-06-28T03:51:50.420Z,18.92
2023-06-28T03:54:21.081Z,19.13
2023-06-28T03:56:50.290Z,19.28
2023-06-28T03:59:18.288Z,19.31
2023-06-28T04:01:48.118Z,19.51
2023-06-28T04:04:17.536Z,19.55
2023-06-28T04:06:46.361Z,19.54
2023-06-28T04:09:14.079Z,19.73
2023-06-28T04:11:41.746Z,19.54
2023-06-28T04:14:09.168Z,19.63
2023-06-28T04:16:37.332Z,19.76
2023-06-28T04:19:06.195Z,19.58
2023-06-28T04:21:34.307Z,19.54
2023-06-28T04:24:02.052Z,19.38
2023-06-28T04:26:29.719Z,19.19
2023-06-28T04:28:57.119Z,18.99
2023-06-28T04:31:25.320Z,18.86
2023-06-28T04:33:56.776Z,18.61
2023-06-28T04:36:26.596Z,18.92
2023-06-28T04:38:56.062Z,19.00
2023-06-28T04:41:29.576Z,19.00
2023-06-28T04:43:59.191Z,18.90
2023-06-28T04:46:29.767Z,19.13
2023-06-28T04:49:00.911Z,19.10
2023-06-28T04:51:29.342Z,19.05
2023-06-28T04:53:57.072Z,18.96
2023-06-28T04:56:25.674Z,19.28
2023-06-28T04:58:53.061Z,19.29
2023-06-28T05:01:21.097Z,19.33
2023-06-28T05:03:48.756Z,19.54
2023-06-28T05:06:17.442Z,19.25
2023-06-28T05:08:45.142Z,19.43
2023-06-28T05:11:12.573Z,19.45
2023-06-28T05:13:40.550Z,19.19
2023-06-28T05:16:08.272Z,19.33
2023-06-28T05:18:35.668Z,19.46
2023-06-28T05:21:03.331Z,18.72
2023-06-28T05:23:31.242Z,19.09
2023-06-28T05:25:58.627Z,18.88
2023-06-28T05:28:27.221Z,19.07
2023-06-28T05:30:55.128Z,18.94
2023-06-28T05:33:22.602Z,18.51
2023-06-28T05:35:50.557Z,18.84
2023-06-28T05:38:18.317Z,19.03
2023-06-28T05:40:45.737Z,19.16
2023-06-28T05:43:13.156Z,19.39
2023-06-28T05:45:40.846Z,19.05
2023-06-28T05:48:08.567Z,18.99
2023-06-28T05:50:38.727Z,18.95
2023-06-28T05:53:08.074Z,19.11
2023-06-28T05:55:35.525Z,19.01
2023-06-28T05:58:03.052Z,19.33
2023-06-28T06:00:30.793Z,19.36
2023-06-28T06:02:58.663Z,19.38
2023-06-28T06:05:26.266Z,19.22
2023-06-28T06:07:53.705Z,19.16
2023-06-28T06:10:21.401Z,19.06
2023-06-28T06:12:48.859Z,18.98
2023-06-28T06:15:16.556Z,19.19
2023-06-28T06:17:44.386Z,18.86
2023-06-28T06:20:12.156Z,19.36
2023-06-28T06:22:39.639Z,19.12
2023-06-28T06:25:07.643Z,19.10
2023-06-28T06:27:35.233Z,18.86
2023-06-28T06:30:03.098Z,19.37
2023-06-28T06:32:31.323Z,18.93
2023-06-28T06:34:59.135Z,19.65
2023-06-28T06:37:26.574Z,18.63
2023-06-28T06:39:57.104Z,19.23
2023-06-28T06:42:24.538Z,18.62
2023-06-28T06:44:52.102Z,18.75
2023-06-28T06:47:19.815Z,18.76
2023-06-28T06:49:47.188Z,18.54
2023-06-28T06:52:14.579Z,18.21
2023-06-28T06:54:42.252Z,18.79
2023-06-28T06:57:09.664Z,18.37
2023-06-28T06:59:37.508Z,18.24
2023-06-28T07:02:05.980Z,18.57
2023-06-28T07:04:33.675Z,18.95
2023-06-28T07:07:01.163Z,18.75
2023-06-28T07:09:29.846Z,19.11
2023-06-28T07:11:57.301Z,19.06
2023-06-28T07:14:24.719Z,19.01
2023-06-28T07:16:52.478Z,19.27
2023-06-28T07:19:19.913Z,19.21
2023-06-28T07:21:47.267Z,19.33
2023-06-28T07:24:14.958Z,19.28
2023-06-28T07:26:42.366Z,18.99
2023-06-28T07:29:09.835Z,19.33
2023-06-28T07:31:37.621Z,19.12
2023-06-28T07:34:07.316Z,19.38
2023-06-28T07:36:34.752Z,19.64
2023-06-28T07:39:02.519Z,19.41
2023-06-28T07:41:29.971Z,18.71
2023-06-28T07:43:57.401Z,19.06
2023-06-28T07:46:25.253Z,19.03
2023-06-28T07:48:52.919Z,18.77
2023-06-28T07:51:20.367Z,18.51
2023-06-28T07:53:48.161Z,18.88
2023-06-28T07:56:15.762Z,19.01
2023-06-28T07:58:43.186Z,18.81
2023-06-28T08:01:10.935Z,19.39
2023-06-28T08:03:38.861Z,19.16
2023-06-28T08:06:06.307Z,19.20
2023-06-28T08:08:33.949Z,19.58
2023-06-28T08:11:01.692Z,19.16
2023-06-28T08:13:29.168Z,19.45
2023-06-28T08:15:56.538Z,19.35
2023-06-28T08:18:24.371Z,19.28
2023-06-28T08:20:51.789Z,19.36
2023-06-28T08:23:19.879Z,19.37
2023-06-28T08:25:47.557Z,19.30
2023-06-28T08:28:14.975Z,19.73
2023-06-28T08:30:42.463Z,20.06
2023-06-28T08:33:10.272Z,19.87
2023-06-28T08:35:37.740Z,19.76
2023-06-28T08:38:05.171Z,19.55
2023-06-28T08:40:33.438Z,19.86
2023-06-28T08:43:02.829Z,19.82
2023-06-28T08:45:33.197Z,20.00
2023-06-28T08:48:05.030Z,19.92
2023-06-28T08:50:39.964Z,20.27
2023-06-28T08:53:11.097Z,19.93
2023-06-28T08:55:39.056Z,19.60
2023-06-28T08:58:06.960Z,20.11
2023-06-28T09:00:34.628Z,20.26
2023-06-28T09:03:04.946Z,20.14
2023-06-28T09:05:34.282Z,20.39
2023-06-28T09:08:04.505Z,19.76
2023-06-28T09:10:32.259Z,19.67
2023-06-28T09:12:59.808Z,20.15
2023-06-28T09:15:27.481Z,20.12
2023-06-28T09:17:54.938Z,20.05
2023-06-28T09:20:22.704Z,20.45
2023-06-28T09:22:57.731Z,20.11
2023-06-28T09:25:30.614Z,20.26
2023-06-28T09:27:59.193Z,20.38
2023-06-28T09:30:41.473Z,19.58
2023-06-28T09:33:09.349Z,20.29
2023-06-28T09:35:40.341Z,20.38
2023-06-28T09:38:08.890Z,20.33
2023-06-28T09:40:36.948Z,20.32
2023-06-28T09:43:04.626Z,20.60
2023-06-28T09:45:34.450Z,20.56
2023-06-28T09:48:03.297Z,20.77
2023-06-28T09:50:41.179Z,20.65
2023-06-28T09:53:10.640Z,20.70
2023-06-28T09:55:41.292Z,20.94
2023-06-28T09:58:11.962Z,20.77
2023-06-28T10:00:40.586Z,20.83
2023-06-28T10:03:13.771Z,20.71
2023-06-28T10:05:43.810Z,21.04
2023-06-28T10:08:16.620Z,21.15
2023-06-28T10:10:45.561Z,21.22
2023-06-28T10:13:15.527Z,21.63
2023-06-28T10:15:54.956Z,21.11
2023-06-28T10:18:23.401Z,21.17
2023-06-28T10:20:53.320Z,21.66
2023-06-28T10:23:20.855Z,21.73
2023-06-28T10:25:48.520Z,21.51
2023-06-28T10:28:16.122Z,21.69
2023-06-28T10:30:43.981Z,22.20
2023-06-28T10:33:12.295Z,22.56
2023-06-28T10:35:40.466Z,22.77
2023-06-28T10:38:14.032Z,22.62
2023-06-28T10:40:46.928Z,22.87
2023-06-28T10:43:24.594Z,23.06
2023-06-28T10:45:56.067Z,23.22
2023-06-28T10:48:25.216Z,23.38
2023-06-28T10:50:53.338Z,23.24
2023-06-28T10:53:26.276Z,23.34
2023-06-28T10:56:14.593Z,23.72
2023-06-28T10:58:43.827Z,23.72
2023-06-28T11:01:15.236Z,23.92
2023-06-28T11:03:46.387Z,23.35
2023-06-28T11:06:14.960Z,23.86
2023-06-28T11:08:44.175Z,23.24
2023-06-28T11:11:31.781Z,24.05
2023-06-28T11:14:17.772Z,24.44
2023-06-28T11:16:48.626Z,23.69
2023-06-28T11:19:17.548Z,24.10
2023-06-28T11:21:50.299Z,24.00
2023-06-28T11:24:43.063Z,24.16
2023-06-28T11:27:14.912Z,24.19
2023-06-28T11:29:59.587Z,24.36
2023-06-28T11:32:29.116Z,24.09
2023-06-28T11:34:58.570Z,23.76
2023-06-28T11:37:27.928Z,23.80
2023-06-28T11:39:55.491Z,24.01
2023-06-28T11:42:23.176Z,24.21
2023-06-28T11:44:52.234Z,24.32
2023-06-28T11:47:27.085Z,24.36
2023-06-28T11:49:56.723Z,24.52
2023-06-28T11:52:25.160Z,24.16
2023-06-28T11:54:53.250Z,24.80
2023-06-28T11:57:20.925Z,24.90
2023-06-28T11:59:52.101Z,25.05
2023-06-28T12:02:19.528Z,25.33
2023-06-28T12:05:01.652Z,25.05
2023-06-28T12:07:29.698Z,24.90
2023-06-28T12:09:58.601Z,24.69
2023-06-28T12:12:36.159Z,24.65
2023-06-28T12:15:04.857Z,24.36
2023-06-28T12:17:43.651Z,24.60
2023-06-28T12:20:15.240Z,24.66
2023-06-28T12:22:44.545Z,24.95
2023-06-28T12:25:12.355Z,24.48
2023-06-28T12:27:39.989Z,24.47
2023-06-28T12:30:12.238Z,24.26
2023-06-28T12:32:45.159Z,25.04
2023-06-28T12:35:26.024Z,24.99
2023-06-28T12:37:58.402Z,25.06
2023-06-28T12:40:35.017Z,24.62
2023-06-28T12:43:13.792Z,24.65
2023-06-28T12:45:52.178Z,24.49
2023-06-28T12:48:21.441Z,24.67
2023-06-28T12:50:53.010Z,24.93
2023-06-28T12:53:22.432Z,24.60
2023-06-28T12:55:50.209Z,24.51
2023-06-28T12:58:17.580Z,24.55
2023-06-28T13:00:46.546Z,24.58
2023-06-28T13:03:15.204Z,24.78
2023-06-28T13:05:43.122Z,24.89
2023-06-28T13:08:12.002Z,24.70
2023-06-28T13:10:39.462Z,24.84
2023-06-28T13:13:07.024Z,24.21
2023-06-28T13:15:34.798Z,24.42
2023-06-28T13:18:02.256Z,24.14
2023-06-28T13:20:29.649Z,24.39
2023-06-28T13:22:57.356Z,24.23
2023-06-28T13:25:27.299Z,24.52
2023-06-28T13:27:54.782Z,24.53
2023-06-28T13:30:22.844Z,24.37
2023-06-28T13:32:51.270Z,23.92
2023-06-28T13:35:18.898Z,24.20
2023-06-28T13:37:49.727Z,24.00
2023-06-28T13:40:19.140Z,24.25
2023-06-28T13:42:47.729Z,24.52
2023-06-28T13:45:17.885Z,24.15
2023-06-28T13:47:45.403Z,24.35
2023-06-28T13:50:14.206Z,23.85
2023-06-28T13:52:41.618Z,23.64
2023-06-28T13:55:09.494Z,23.55
2023-06-28T13:57:37.163Z,23.15
2023-06-28T14:00:05.687Z,22.75
2023-06-28T14:02:33.195Z,23.03
2023-06-28T14:05:00.948Z,22.35
2023-06-28T14:07:28.386Z,22.44
2023-06-28T14:09:55.905Z,22.31
2023-06-28T14:12:23.672Z,21.71
2023-06-28T14:14:51.146Z,21.89
2023-06-28T14:17:18.886Z,21.86
2023-06-28T14:19:46.723Z,22.67
2023-06-28T14:22:14.184Z,22.72
2023-06-28T14:24:41.666Z,21.64
2023-06-28T14:27:09.356Z,21.94
2023-06-28T14:29:37.568Z,22.07
2023-06-28T14:32:06.135Z,22.00
2023-06-28T14:34:33.917Z,22.26
2023-06-28T14:37:01.342Z,22.11
2023-06-28T14:39:28.789Z,22.19
2023-06-28T14:41:56.831Z,22.08
2023-06-28T14:44:24.262Z,21.97
2023-06-28T14:46:51.664Z,22.25
2023-06-28T14:49:20.166Z,21.87
2023-06-28T14:51:48.179Z,22.01
2023-06-28T14:54:15.656Z,22.33
2023-06-28T14:56:43.353Z,22.20
2023-06-28T14:59:10.769Z,22.25
2023-06-28T15:01:38.566Z,22.14
2023-06-28T15:04:06.304Z,22.30
2023-06-28T15:06:33.717Z,22.40
2023-06-28T15:09:01.118Z,22.39
2023-06-28T15:11:28.876Z,22.38
2023-06-28T15:13:56.255Z,22.35
2023-06-28T15:16:23.732Z,22.38
2023-06-28T15:18:51.405Z,22.54
2023-06-28T15:21:18.805Z,22.46
2023-06-28T15:23:46.273Z,22.58
2023-06-28T15:26:14.013Z,22.34
2023-06-28T15:28:41.439Z,22.27
2023-06-28T15:31:09.137Z,22.43
2023-06-28T15:33:36.821Z,22.50
2023-06-28T15:36:04.407Z,22.01
2023-06-28T15:38:31.839Z,21.88
2023-06-28T15:40:59.494Z,22.04
2023-06-28T15:43:26.989Z,22.35
2023-06-28T15:45:54.447Z,22.06
2023-06-28T15:48:22.139Z,21.79
2023-06-28T15:50:49.574Z,22.09
2023-06-28T15:53:17.315Z,22.34
2023-06-28T15:55:45.087Z,22.44
2023-06-28T15:58:12.490Z,22.46
2023-06-28T16:00:40.061Z,22.40
2023-06-28T16:03:09.068Z,22.71
2023-06-28T16:05:36.495Z,22.78
2023-06-28T16:08:04.104Z,22.49
2023-06-28T16:10:32.725Z,22.41
2023-06-28T16:13:01.179Z,22.39
2023-06-28T16:15:28.614Z,22.06
2023-06-28T16:17:56.388Z,22.58
2023-06-28T16:20:23.945Z,22.57
2023-06-28T16:22:53.517Z,22.50
2023-06-28T16:25:21.217Z,22.21
2023-06-28T16:27:50.796Z,22.38
2023-06-28T16:30:18.828Z,22.55
2023-06-28T16:32:46.552Z,22.43
2023-06-28T16:35:14.260Z,22.50
2023-06-28T16:37:41.638Z,22.54
2023-06-28T16:40:09.713Z,22.56
2023-06-28T16:42:37.126Z,22.57
2023-06-28T16:45:05.001Z,22.66
2023-06-28T16:47:32.814Z,22.61
2023-06-28T16:50:00.413Z,22.07
2023-06-28T16:52:27.902Z,22.37
2023-06-28T16:54:56.249Z,22.34
2023-06-28T16:57:24.139Z,21.82
2023-06-28T16:59:51.602Z,21.80
2023-06-28T17:02:19.563Z,21.84
2023-06-28T17:04:47.114Z,22.01
2023-06-28T17:07:14.991Z,21.58
2023-06-28T17:09:42.751Z,21.83
2023-06-28T17:12:10.253Z,22.07
2023-06-28T17:14:37.678Z,21.72
2023-06-28T17:17:05.435Z,21.86
2023-06-28T17:19:32.914Z,22.10
2023-06-28T17:22:00.680Z,21.79
2023-06-28T17:24:29.436Z,21.92
2023-06-28T17:26:58.114Z,21.96
2023-06-28T17:29:26.500Z,21.68
2023-06-28T17:31:55.455Z,21.71
2023-06-28T17:34:23.894Z,21.72
2023-06-28T17:36:52.852Z,21.85
2023-06-28T17:39:21.252Z,21.84
2023-06-28T17:41:49.039Z,21.80
2023-06-28T17:44:17.231Z,22.03
2023-06-28T17:46:45.924Z,22.01
2023-06-28T17:49:13.410Z,22.04
2023-06-28T17:51:41.878Z,22.22
2023-06-28T17:54:10.381Z,22.11
2023-06-28T17:56:39.019Z,22.16
2023-06-28T17:59:06.939Z,22.27
2023-06-28T18:01:35.971Z,22.18
2023-06-28T18:04:04.606Z,22.24
2023-06-28T18:06:32.625Z,22.08
2023-06-28T18:09:00.268Z,22.10
2023-06-28T18:11:28.237Z,22.10
2023-06-28T18:13:56.683Z,21.83
2023-06-28T18:16:24.133Z,21.74
2023-06-28T18:18:52.840Z,21.73
2023-06-28T18:21:21.485Z,21.76
2023-06-28T18:23:50.025Z,21.65
2023-06-28T18:26:18.200Z,21.59
2023-06-28T18:28:46.360Z,21.37
2023-06-28T18:31:14.602Z,21.33
2023-06-28T18:33:43.489Z,21.41
2023-06-28T18:36:11.925Z,21.04
2023-06-28T18:38:40.469Z,21.04
2023-06-28T18:41:09.030Z,21.10
2023-06-28T18:43:36.686Z,21.04
2023-06-28T18:46:06.695Z,20.86
2023-06-28T18:48:35.458Z,20.96
2023-06-28T18:51:03.340Z,20.85
2023-06-28T18:53:31.990Z,20.61
2023-06-28T18:56:01.484Z,20.50
2023-06-28T18:58:31.170Z,20.31
2023-06-28T19:00:59.851Z,20.31
2023-06-28T19:03:29.040Z,20.41
2023-06-28T19:05:58.008Z,20.50
2023-06-28T19:08:26.581Z,20.32
2023-06-28T19:10:55.758Z,20.46
2023-06-28T19:13:25.639Z,20.08
2023-06-28T19:15:53.697Z,20.38
2023-06-28T19:18:23.622Z,20.12
2023-06-28T19:20:52.115Z,20.07
2023-06-28T19:23:20.469Z,19.97
2023-06-28T19:25:51.906Z,19.79
2023-06-28T19:28:22.465Z,19.75
2023-06-28T19:30:50.145Z,19.85
2023-06-28T19:33:17.920Z,19.81
2023-06-28T19:35:45.525Z,19.79
2023-06-28T19:38:12.971Z,19.92
2023-06-28T19:40:40.946Z,19.84
2023-06-28T19:43:08.687Z,19.68
2023-06-28T19:45:36.172Z,19.76
2023-06-28T19:48:04.296Z,19.60
2023-06-28T19:50:31.952Z,19.61
2023-06-28T19:52:59.637Z,19.57
2023-06-28T19:55:27.501Z,19.62
2023-06-28T19:57:55.177Z,19.41
2023-06-28T20:00:22.984Z,19.44
2023-06-28T20:02:50.821Z,19.56
2023-06-28T20:05:21.045Z,19.51
2023-06-28T20:07:50.113Z,19.37
2023-06-28T20:10:17.988Z,19.34
2023-06-28T20:12:46.838Z,19.26
2023-06-28T20:15:14.304Z,19.23
2023-06-28T20:17:42.084Z,19.15
2023-06-28T20:20:10.006Z,19.28
2023-06-28T20:22:37.473Z,19.26
2023-06-28T20:25:07.255Z,19.26
2023-06-28T20:27:35.550Z,19.23
2023-06-28T20:30:04.476Z,19.17
2023-06-28T20:32:33.856Z,19.17
2023-06-28T20:35:01.452Z,19.17
2023-06-28T20:37:29.036Z,19.18
2023-06-28T20:39:56.807Z,19.29
2023-06-28T20:42:26.189Z,19.13
2023-06-28T20:44:56.238Z,19.21
2023-06-28T20:47:24.764Z,19.40
2023-06-28T20:49:52.547Z,19.31
2023-06-28T20:52:20.932Z,19.30
2023-06-28T20:54:48.665Z,19.20
2023-06-28T20:57:16.126Z,19.28
2023-06-28T20:59:43.548Z,19.11
2023-06-28T21:02:11.265Z,19.26
2023-06-28T21:04:38.836Z,19.37
2023-06-28T21:07:06.705Z,19.24
2023-06-28T21:09:34.428Z,19.35
2023-06-28T21:12:01.879Z,19.32
2023-06-28T21:14:29.374Z,19.30
2023-06-28T21:16:57.016Z,19.39
2023-06-28T21:19:24.464Z,19.26
2023-06-28T21:21:51.867Z,19.54
2023-06-28T21:24:19.632Z,19.50
2023-06-28T21:26:47.148Z,19.46
2023-06-28T21:29:14.631Z,19.56
2023-06-28T21:31:42.390Z,19.45
2023-06-28T21:34:09.817Z,19.53
2023-06-28T21:36:37.583Z,19.42
2023-06-28T21:39:05.371Z,19.54
2023-06-28T21:41:32.918Z,19.51
2023-06-28T21:44:00.345Z,19.54
2023-06-28T21:46:28.092Z,19.31
2023-06-28T21:48:55.514Z,19.01
2023-06-28T21:51:25.113Z,19.16
2023-06-28T21:53:53.451Z,18.99
2023-06-28T21:56:21.721Z,19.20
2023-06-28T21:58:49.398Z,19.32
2023-06-28T22:01:17.046Z,19.33
2023-06-28T22:03:44.752Z,19.29
2023-06-28T22:06:12.165Z,19.29
2023-06-28T22:08:39.573Z,19.32
2023-06-28T22:11:09.483Z,19.19
2023-06-28T22:13:42.185Z,19.19
2023-06-28T22:16:14.806Z,19.04
2023-06-28T22:18:45.204Z,19.08
2023-06-28T22:21:12.932Z,18.98
2023-06-28T22:23:40.392Z,18.89
2023-06-28T22:26:07.907Z,18.90
2023-06-28T22:28:35.906Z,18.94
2023-06-28T22:31:03.528Z,18.72
2023-06-28T22:33:31.079Z,18.87
2023-06-28T22:35:58.779Z,18.66
2023-06-28T22:38:27.329Z,18.53
2023-06-28T22:40:56.086Z,18.34
2023-06-28T22:43:23.823Z,18.38
2023-06-28T22:45:51.254Z,18.27
2023-06-28T22:48:20.241Z,18.28
2023-06-28T22:50:48.905Z,18.31
2023-06-28T22:53:16.408Z,18.16
2023-06-28T22:55:46.573Z,18.21
2023-06-28T22:58:14.283Z,18.29
2023-06-28T23:00:41.690Z,18.19
2023-06-28T23:03:09.732Z,18.16
2023-06-28T23:05:39.597Z,18.09
2023-06-28T23:08:08.443Z,18.10
2023-06-28T23:10:35.903Z,18.06
2023-06-28T23:13:03.611Z,17.93
2023-06-28T23:15:31.882Z,17.98
2023-06-28T23:18:00.630Z,17.81
2023-06-28T23:20:28.447Z,17.77
2023-06-28T23:22:55.997Z,17.80
2023-06-28T23:25:23.409Z,17.72
2023-06-28T23:27:51.776Z,17.77
2023-06-28T23:30:20.174Z,17.79
2023-06-28T23:32:50.519Z,17.78
2023-06-28T23:35:20.781Z,17.74
2023-06-28T23:37:49.472Z,17.70
2023-06-28T23:40:16.958Z,17.65
2023-06-28T23:42:44.887Z,17.82
2023-06-28T23:45:12.281Z,17.98
2023-06-28T23:47:40.400Z,17.82
2023-06-28T23:50:09.858Z,17.94
2023-06-28T23:52:37.581Z,17.86
2023-06-28T23:55:05.342Z,17.86
2023-06-28T23:57:34.836Z,17.80
